createdAt,value
2022-08-20T00:02:16.592Z,1.80
2022-08-20T00:04:44.914Z,2.40
2022-08-20T00:07:14.845Z,2.00
2022-08-20T00:09:44.284Z,2.30
2022-08-20T00:12:16.104Z,2.10
2022-08-20T00:14:43.814Z,2.10
2022-08-20T00:17:11.860Z,2.00
2022-08-20T00:19:39.569Z,1.60
2022-08-20T00:22:07.680Z,2.00
2022-08-20T00:24:35.478Z,2.00
2022-08-20T00:27:03.596Z,2.10
2022-08-20T00:29:31.748Z,2.20
2022-08-20T00:32:00.246Z,2.00
2022-08-20T00:34:28.667Z,1.90
2022-08-20T00:36:56.440Z,2.00
2022-08-20T00:39:24.152Z,1.80
2022-08-20T00:41:52.191Z,1.90
2022-08-20T00:44:23.443Z,2.10
2022-08-20T00:46:53.921Z,1.70
2022-08-20T00:49:33.197Z,2.20
2022-08-20T00:52:12.766Z,1.60
2022-08-20T00:54:54.810Z,1.90
2022-08-20T00:57:56.754Z,1.90
2022-08-20T01:00:31.901Z,1.60
2022-08-20T01:03:00.862Z,1.70
2022-08-20T01:05:30.089Z,1.60
2022-08-20T01:07:58.734Z,1.70
2022-08-20T01:10:35.127Z,1.60
2022-08-20T01:13:10.074Z,1.50
2022-08-20T01:15:45.998Z,1.40
2022-08-20T01:18:24.518Z,1.30
2022-08-20T01:21:01.582Z,1.30
2022-08-20T01:23:51.047Z,1.40
2022-08-20T01:26:37.899Z,1.60
2022-08-20T01:29:14.932Z,1.70
2022-08-20T01:31:43.659Z,1.50
2022-08-20T01:34:17.562Z,1.80
2022-08-20T01:39:33.770Z,1.20
2022-08-20T01:42:17.371Z,1.60
2022-08-20T01:47:29.157Z,1.60
2022-08-20T01:50:02.820Z,1.60
2022-08-20T01:52:41.511Z,1.50
2022-08-20T01:55:10.587Z,1.40
2022-08-20T01:57:39.921Z,1.60
2022-08-20T02:00:20.224Z,1.80
2022-08-20T02:02:51.132Z,1.90
2022-08-20T02:05:20.568Z,1.60
2022-08-20T02:07:48.705Z,1.90
2022-08-20T02:10:19.277Z,1.50
2022-08-20T02:12:47.245Z,1.40
2022-08-20T02:15:16.252Z,1.60
2022-08-20T02:17:45.237Z,1.50
2022-08-20T02:20:20.523Z,1.80
2022-08-20T02:22:53.666Z,1.60
2022-08-20T02:25:28.252Z,1.80
2022-08-20T02:28:00.751Z,1.70
2022-08-20T02:30:36.642Z,1.70
2022-08-20T02:33:10.668Z,1.70
2022-08-20T02:35:42.914Z,1.40
2022-08-20T02:38:11.540Z,1.70
2022-08-20T02:40:41.064Z,1.80
2022-08-20T02:43:08.913Z,1.70
2022-08-20T02:45:38.530Z,1.50
2022-08-20T02:48:06.314Z,1.50
2022-08-20T02:50:34.557Z,1.70
2022-08-20T02:53:02.875Z,1.60
2022-08-20T02:55:30.556Z,1.60
2022-08-20T02:58:00.746Z,1.90
2022-08-20T03:00:38.100Z,1.50
2022-08-20T03:03:10.663Z,1.30
2022-08-20T03:05:42.486Z,1.30
2022-08-20T03:08:13.460Z,1.40
2022-08-20T03:10:44.150Z,1.50
2022-08-20T03:13:14.505Z,1.40
2022-08-20T03:15:59.111Z,1.60
2022-08-20T03:18:35.117Z,1.70
2022-08-20T03:21:05.891Z,1.50
2022-08-20T03:23:35.396Z,1.70
2022-08-20T03:26:08.396Z,1.50
2022-08-20T03:28:36.857Z,1.50
2022-08-20T03:31:05.386Z,1.60
2022-08-20T03:33:34.041Z,1.30
2022-08-20T03:36:02.026Z,1.60
2022-08-20T03:38:33.156Z,1.80
2022-08-20T03:41:03.130Z,2.10
2022-08-20T03:43:32.298Z,1.50
2022-08-20T03:46:00.550Z,1.40
2022-08-20T03:48:29.228Z,1.50
2022-08-20T03:50:58.657Z,1.80
2022-08-20T03:53:31.794Z,1.80
2022-08-20T03:56:04.622Z,2.00
2022-08-20T03:58:35.266Z,1.90
2022-08-20T04:01:07.281Z,2.00
2022-08-20T04:03:36.860Z,1.90
2022-08-20T04:06:04.845Z,2.10
2022-08-20T04:08:32.826Z,2.00
2022-08-20T04:11:01.446Z,2.20
2022-08-20T04:13:31.297Z,1.80
2022-08-20T04:16:04.720Z,1.90
2022-08-20T04:18:34.120Z,1.80
2022-08-20T04:21:01.839Z,1.60
2022-08-20T04:23:31.404Z,1.50
2022-08-20T04:26:00.950Z,1.70
2022-08-20T04:28:28.830Z,2.00
2022-08-20T04:31:01.078Z,2.20
2022-08-20T04:33:34.051Z,1.80
2022-08-20T04:36:06.313Z,1.90
2022-08-20T04:38:47.777Z,1.70
2022-08-20T04:43:56.586Z,1.60
2022-08-20T04:46:28.082Z,2.10
2022-08-20T04:48:57.653Z,2.50
2022-08-20T04:51:26.888Z,1.50
2022-08-20T04:53:57.453Z,1.70
2022-08-20T04:56:29.521Z,2.10
2022-08-20T04:59:01.666Z,2.10
2022-08-20T05:01:29.973Z,1.90
2022-08-20T05:03:59.112Z,2.00
2022-08-20T05:06:31.860Z,1.80
2022-08-20T05:09:00.953Z,1.80
2022-08-20T05:11:34.053Z,1.90
2022-08-20T05:14:11.421Z,2.10
2022-08-20T05:16:40.772Z,2.40
2022-08-20T05:19:13.162Z,2.20
2022-08-20T05:21:41.828Z,2.00
2022-08-20T05:24:11.425Z,2.40
2022-08-20T05:26:39.181Z,2.20
2022-08-20T05:29:07.569Z,2.10
2022-08-20T05:31:35.882Z,2.30
2022-08-20T05:34:12.265Z,2.50
2022-08-20T05:36:49.355Z,2.80
2022-08-20T05:39:21.450Z,2.50
2022-08-20T05:41:50.977Z,2.40
2022-08-20T05:44:19.764Z,2.30
2022-08-20T05:46:48.732Z,2.30
2022-08-20T05:49:21.401Z,2.50
2022-08-20T05:51:53.776Z,2.80
2022-08-20T05:54:24.122Z,2.50
2022-08-20T05:56:51.810Z,2.60
2022-08-20T05:59:24.143Z,2.60
2022-08-20T06:01:53.157Z,2.70
2022-08-20T06:04:28.102Z,2.70
2022-08-20T06:07:09.185Z,2.60
2022-08-20T06:09:36.962Z,3.00
2022-08-20T06:12:09.026Z,2.60
2022-08-20T06:14:37.440Z,3.20
2022-08-20T06:17:13.413Z,3.30
2022-08-20T06:19:44.426Z,3.00
2022-08-20T06:22:19.467Z,3.10
2022-08-20T06:24:52.353Z,3.00
2022-08-20T06:27:21.066Z,2.90
2022-08-20T06:29:50.272Z,3.20
2022-08-20T06:32:28.861Z,2.60
2022-08-20T06:35:07.317Z,3.20
2022-08-20T06:37:38.489Z,2.60
2022-08-20T06:40:17.471Z,2.70
2022-08-20T06:42:48.802Z,2.40
2022-08-20T06:45:26.590Z,2.20
2022-08-20T06:47:58.662Z,2.60
2022-08-20T06:50:43.186Z,2.40
2022-08-20T06:53:20.645Z,2.40
2022-08-20T06:55:54.646Z,2.20
2022-08-20T06:58:35.614Z,2.50
2022-08-20T07:01:10.331Z,2.50
2022-08-20T07:03:55.096Z,2.00
2022-08-20T07:06:26.790Z,3.10
2022-08-20T07:08:55.881Z,2.70
2022-08-20T07:11:28.224Z,3.00
2022-08-20T07:13:58.535Z,3.00
2022-08-20T07:16:27.677Z,3.40
2022-08-20T07:18:55.482Z,3.50
2022-08-20T07:21:24.425Z,3.50
2022-08-20T07:23:53.147Z,3.30
2022-08-20T07:26:20.893Z,3.00
2022-08-20T07:28:49.748Z,3.10
2022-08-20T07:31:36.295Z,3.60
2022-08-20T07:34:05.377Z,2.50
2022-08-20T07:36:34.670Z,3.00
2022-08-20T07:39:05.884Z,2.40
2022-08-20T07:41:34.238Z,2.90
2022-08-20T07:44:02.730Z,2.40
2022-08-20T07:46:31.844Z,2.70
2022-08-20T07:49:00.255Z,2.60
2022-08-20T07:51:28.737Z,2.60
2022-08-20T07:53:58.446Z,2.50
2022-08-20T07:56:26.686Z,2.70
2022-08-20T07:58:59.083Z,2.50
2022-08-20T08:01:31.652Z,1.90
2022-08-20T08:04:01.391Z,3.20
2022-08-20T08:06:31.944Z,2.60
2022-08-20T08:09:09.801Z,2.10
2022-08-20T08:11:47.526Z,3.20
2022-08-20T08:14:23.763Z,2.30
2022-08-20T08:16:55.324Z,2.30
2022-08-20T08:19:26.827Z,2.50
2022-08-20T08:21:58.701Z,2.20
2022-08-20T08:24:28.507Z,8.90
2022-08-20T08:26:56.568Z,4.80
2022-08-20T08:29:24.299Z,12.60
2022-08-20T08:31:52.381Z,4.00
2022-08-20T08:34:20.343Z,2.40
2022-08-20T08:36:48.320Z,2.90
2022-08-20T08:39:16.309Z,2.30
2022-08-20T08:41:49.989Z,3.50
2022-08-20T08:47:29.822Z,2.20
2022-08-20T08:49:58.447Z,2.10
2022-08-20T08:52:35.311Z,2.40
2022-08-20T08:55:13.248Z,2.30
2022-08-20T08:57:41.567Z,2.40
2022-08-20T09:00:17.715Z,2.30
2022-08-20T09:03:11.020Z,2.20
2022-08-20T09:05:50.745Z,2.40
2022-08-20T09:08:41.788Z,1.90
2022-08-20T09:11:10.079Z,2.00
2022-08-20T09:13:37.828Z,2.00
2022-08-20T09:16:06.004Z,2.00
2022-08-20T09:18:33.760Z,2.00
2022-08-20T09:21:01.865Z,1.50
2022-08-20T09:23:29.601Z,1.80
2022-08-20T09:25:58.447Z,2.00
2022-08-20T09:28:32.324Z,1.90
2022-08-20T09:31:04.457Z,1.80
2022-08-20T09:33:33.291Z,1.80
2022-08-20T09:36:01.220Z,1.90
2022-08-20T09:38:29.033Z,1.90
2022-08-20T09:40:56.820Z,1.30
2022-08-20T09:43:24.621Z,1.20
2022-08-20T09:45:52.674Z,1.30
2022-08-20T09:48:32.093Z,1.50
2022-08-20T09:51:01.342Z,1.50
2022-08-20T09:53:30.604Z,1.40
2022-08-20T09:56:00.258Z,1.20
2022-08-20T09:58:49.787Z,1.50
2022-08-20T10:01:21.325Z,1.10
2022-08-20T10:03:51.032Z,1.10
2022-08-20T10:06:20.548Z,1.10
2022-08-20T10:08:49.827Z,1.10
2022-08-20T10:11:18.391Z,1.00
2022-08-20T10:13:46.200Z,1.00
2022-08-20T10:16:14.020Z,1.00
2022-08-20T10:18:42.032Z,1.10
2022-08-20T10:21:13.033Z,0.90
2022-08-20T10:23:41.375Z,1.00
2022-08-20T10:26:11.875Z,1.00
2022-08-20T10:28:40.017Z,0.90
2022-08-20T10:31:11.093Z,0.90
2022-08-20T10:33:41.782Z,1.00
2022-08-20T10:36:15.698Z,0.90
2022-08-20T10:38:45.256Z,1.10
2022-08-20T10:41:13.180Z,1.40
2022-08-20T10:43:40.889Z,1.30
2022-08-20T10:46:09.485Z,0.80
2022-08-20T10:48:38.109Z,1.40
2022-08-20T10:51:06.482Z,1.20
2022-08-20T10:53:35.233Z,1.20
2022-08-20T10:56:03.197Z,1.10
2022-08-20T10:58:39.306Z,1.30
2022-08-20T11:01:08.453Z,1.10
2022-08-20T11:03:36.588Z,1.20
2022-08-20T11:06:04.853Z,1.30
2022-08-20T11:08:33.455Z,1.00
2022-08-20T11:11:02.806Z,0.90
2022-08-20T11:13:30.527Z,0.90
2022-08-20T11:15:58.369Z,1.50
2022-08-20T11:18:26.058Z,1.00
2022-08-20T11:20:53.830Z,1.30
2022-08-20T11:23:22.283Z,1.30
2022-08-20T11:25:50.822Z,1.40
2022-08-20T11:28:31.086Z,1.40
2022-08-20T11:31:01.982Z,1.30
2022-08-20T11:33:30.102Z,1.30
2022-08-20T11:35:58.231Z,1.50
2022-08-20T11:38:26.923Z,1.20
2022-08-20T11:40:54.832Z,1.40
2022-08-20T11:43:22.525Z,1.70
2022-08-20T11:45:55.374Z,1.20
2022-08-20T11:48:23.177Z,1.20
2022-08-20T11:50:51.132Z,1.20
2022-08-20T11:53:18.889Z,1.60
2022-08-20T11:55:47.885Z,5.10
2022-08-20T11:58:15.750Z,2.30
2022-08-20T12:00:43.485Z,10.20
2022-08-20T12:03:12.923Z,2.80
2022-08-20T12:05:45.128Z,4.00
2022-08-20T12:08:25.327Z,2.60
2022-08-20T12:11:00.554Z,1.90
2022-08-20T12:13:47.923Z,1.40
2022-08-20T12:16:18.769Z,1.40
2022-08-20T12:18:48.360Z,1.10
2022-08-20T12:21:17.185Z,1.20
2022-08-20T12:23:45.638Z,1.50
2022-08-20T12:26:19.097Z,1.10
2022-08-20T12:28:47.212Z,0.90
2022-08-20T12:31:14.985Z,1.10
2022-08-20T12:33:42.722Z,1.40
2022-08-20T12:36:11.110Z,1.10
2022-08-20T12:38:38.801Z,1.10
2022-08-20T12:41:07.469Z,1.00
2022-08-20T12:43:35.259Z,1.10
2022-08-20T12:46:02.946Z,0.80
2022-08-20T12:48:30.689Z,1.40
2022-08-20T12:50:58.565Z,1.10
2022-08-20T12:53:26.291Z,1.10
2022-08-20T12:55:54.072Z,1.10
2022-08-20T12:58:21.829Z,1.10
2022-08-20T13:00:51.137Z,1.10
2022-08-20T13:03:20.964Z,1.00
2022-08-20T13:05:50.044Z,1.00
2022-08-20T13:08:19.535Z,1.30
2022-08-20T13:10:47.904Z,1.20
2022-08-20T13:13:20.207Z,0.90
2022-08-20T13:15:51.568Z,1.00
2022-08-20T13:18:21.046Z,1.10
2022-08-20T13:20:49.775Z,0.90
2022-08-20T13:23:17.734Z,1.00
2022-08-20T13:25:45.890Z,1.00
2022-08-20T13:28:13.963Z,1.10
2022-08-20T13:30:41.744Z,0.80
2022-08-20T13:33:09.593Z,1.00
2022-08-20T13:35:37.296Z,1.00
2022-08-20T13:38:05.029Z,1.10
2022-08-20T13:40:33.113Z,1.00
2022-08-20T13:43:06.010Z,1.10
2022-08-20T13:45:36.992Z,1.00
2022-08-20T13:48:09.080Z,1.30
2022-08-20T13:50:46.791Z,0.90
2022-08-20T13:53:16.154Z,1.10
2022-08-20T13:55:46.445Z,0.90
2022-08-20T13:58:14.268Z,0.90
2022-08-20T14:00:42.446Z,0.90
2022-08-20T14:03:11.390Z,0.80
2022-08-20T14:05:39.616Z,0.90
2022-08-20T14:08:20.304Z,0.90
2022-08-20T14:10:51.534Z,0.90
2022-08-20T14:13:23.146Z,0.70
2022-08-20T14:15:51.591Z,0.80
2022-08-20T14:18:20.048Z,0.80
2022-08-20T14:20:48.426Z,0.90
2022-08-20T14:23:16.417Z,0.70
2022-08-20T14:25:47.853Z,0.70
2022-08-20T14:28:21.694Z,0.70
2022-08-20T14:30:53.507Z,0.60
2022-08-20T14:33:25.702Z,0.80
2022-08-20T14:35:53.983Z,0.60
2022-08-20T14:38:21.963Z,0.80
2022-08-20T14:40:50.669Z,0.60
2022-08-20T14:43:19.482Z,0.50
2022-08-20T14:45:47.301Z,0.70
2022-08-20T14:48:15.464Z,0.60
2022-08-20T14:50:43.600Z,0.60
2022-08-20T14:53:11.265Z,0.80
2022-08-20T14:55:39.364Z,0.80
2022-08-20T14:58:11.198Z,0.50
2022-08-20T15:00:40.647Z,0.50
2022-08-20T15:03:08.439Z,0.50
2022-08-20T15:05:39.510Z,0.80
2022-08-20T15:08:10.805Z,0.60
2022-08-20T15:10:39.963Z,0.60
2022-08-20T15:13:09.211Z,0.70
2022-08-20T15:15:37.607Z,0.40
2022-08-20T15:18:06.270Z,0.60
2022-08-20T15:20:36.509Z,0.50
2022-08-20T15:23:06.223Z,0.40
2022-08-20T15:25:37.679Z,0.60
2022-08-20T15:28:09.883Z,0.60
2022-08-20T15:30:41.538Z,0.50
2022-08-20T15:33:11.663Z,0.40
2022-08-20T15:35:39.564Z,0.40
2022-08-20T15:38:08.172Z,0.50
2022-08-20T15:40:36.689Z,0.50
2022-08-20T15:43:05.875Z,0.50
2022-08-20T15:45:35.459Z,0.40
2022-08-20T15:48:13.024Z,0.60
2022-08-20T15:51:22.553Z,0.60
2022-08-20T15:54:09.027Z,0.70
2022-08-20T15:57:09.515Z,0.60
2022-08-20T15:59:55.842Z,0.50
2022-08-20T16:02:37.690Z,0.60
2022-08-20T16:05:17.442Z,0.60
2022-08-20T16:08:34.798Z,0.50
2022-08-20T16:11:53.477Z,0.50
2022-08-20T16:14:34.355Z,0.40
2022-08-20T16:17:09.062Z,0.70
2022-08-20T16:19:55.122Z,0.50
2022-08-20T16:22:24.234Z,0.40
2022-08-20T16:24:51.949Z,0.40
2022-08-20T16:27:28.820Z,0.40
2022-08-20T16:30:20.634Z,0.50
2022-08-20T16:33:12.206Z,0.40
2022-08-20T16:35:58.346Z,0.40
2022-08-20T16:39:02.713Z,0.50
2022-08-20T16:41:48.326Z,2.40
2022-08-20T16:44:32.594Z,0.70
2022-08-20T16:47:16.833Z,0.40
2022-08-20T16:50:08.802Z,4.60
2022-08-20T16:52:36.896Z,1.60
2022-08-20T16:55:05.036Z,1.00
2022-08-20T16:57:32.926Z,3.00
2022-08-20T17:00:26.234Z,0.90
2022-08-20T17:03:01.285Z,0.40
2022-08-20T17:05:47.587Z,1.30
2022-08-20T17:08:25.523Z,2.00
2022-08-20T17:11:11.631Z,1.00
2022-08-20T17:13:44.946Z,0.70
2022-08-20T17:16:13.061Z,1.00
2022-08-20T17:18:45.505Z,0.60
2022-08-20T17:21:32.894Z,0.80
2022-08-20T17:24:16.472Z,0.60
2022-08-20T17:27:15.364Z,0.80
2022-08-20T17:30:03.545Z,0.80
2022-08-20T17:32:31.543Z,0.70
2022-08-20T17:35:07.933Z,0.70
2022-08-20T17:37:42.060Z,0.70
2022-08-20T17:40:46.059Z,0.50
2022-08-20T17:43:33.982Z,0.70
2022-08-20T17:46:11.279Z,0.50
2022-08-20T17:48:45.666Z,0.70
2022-08-20T17:51:22.344Z,0.40
2022-08-20T17:53:57.718Z,0.60
2022-08-20T17:56:40.915Z,0.60
2022-08-20T17:59:59.496Z,0.60
2022-08-20T18:02:12.285Z,0.70
2022-08-20T18:04:40.350Z,0.70
2022-08-20T18:07:11.025Z,0.60
2022-08-20T18:10:02.536Z,0.50
2022-08-20T18:12:59.829Z,0.70
2022-08-20T18:15:35.128Z,0.70
2022-08-20T18:18:25.300Z,0.50
2022-08-20T18:21:11.154Z,0.60
2022-08-20T18:23:47.660Z,0.60
2022-08-20T18:26:32.102Z,0.70
2022-08-20T18:29:11.152Z,0.60
2022-08-20T18:32:05.547Z,0.60
2022-08-20T18:34:33.114Z,0.50
2022-08-20T18:37:07.025Z,0.80
2022-08-20T18:39:43.479Z,0.90
2022-08-20T18:42:32.898Z,0.70
2022-08-20T18:45:02.024Z,0.90
2022-08-20T18:47:45.198Z,0.70
2022-08-20T18:50:16.587Z,0.60
2022-08-20T18:52:53.327Z,0.70
2022-08-20T18:55:36.939Z,0.70
2022-08-20T18:58:11.497Z,0.70
2022-08-20T19:00:49.644Z,0.80
2022-08-20T19:03:47.806Z,0.90
2022-08-20T19:06:15.645Z,0.80
2022-08-20T19:08:56.506Z,0.70
2022-08-20T19:11:51.958Z,0.60
2022-08-20T19:15:17.665Z,0.50
2022-08-20T19:18:03.374Z,0.40
2022-08-20T19:20:35.925Z,0.80
2022-08-20T19:23:14.810Z,0.90
2022-08-20T19:25:55.038Z,0.80
2022-08-20T19:28:41.286Z,0.70
2022-08-20T19:31:22.590Z,0.70
2022-08-20T19:34:03.802Z,0.90
2022-08-20T19:37:27.796Z,0.70
2022-08-20T19:39:56.557Z,0.70
2022-08-20T19:42:29.635Z,0.80
2022-08-20T19:45:18.837Z,0.70
2022-08-20T19:48:03.357Z,0.80
2022-08-20T19:51:04.633Z,0.70
2022-08-20T19:53:36.957Z,0.90
2022-08-20T19:56:19.821Z,1.00
2022-08-20T20:01:37.811Z,0.80
2022-08-20T20:04:17.986Z,1.00
2022-08-20T20:06:48.987Z,0.80
2022-08-20T20:09:24.875Z,1.00
2022-08-20T20:12:22.432Z,0.90
2022-08-20T20:14:54.022Z,0.80
2022-08-20T20:17:29.413Z,0.80
2022-08-20T20:20:02.455Z,0.80
2022-08-20T20:22:35.696Z,1.20
2022-08-20T20:25:33.963Z,1.10
2022-08-20T20:28:29.019Z,0.70
2022-08-20T20:31:14.008Z,0.60
2022-08-20T20:33:44.387Z,1.00
2022-08-20T20:36:18.110Z,0.70
2022-08-20T20:39:04.600Z,0.80
2022-08-20T20:41:35.962Z,0.60
2022-08-20T20:44:24.401Z,0.90
2022-08-20T20:47:00.367Z,1.10
2022-08-20T20:49:54.962Z,1.60
2022-08-20T20:52:37.213Z,1.60
2022-08-20T20:55:12.291Z,2.10
2022-08-20T20:57:41.087Z,1.40
2022-08-20T21:00:14.228Z,1.20
2022-08-20T21:02:42.977Z,0.90
2022-08-20T21:05:14.214Z,0.60
2022-08-20T21:08:02.322Z,1.00
2022-08-20T21:10:38.090Z,2.20
2022-08-20T21:13:08.651Z,1.10
2022-08-20T21:15:39.031Z,0.90
2022-08-20T21:18:09.207Z,2.50
2022-08-20T21:20:37.706Z,1.40
2022-08-20T21:23:06.339Z,1.10
2022-08-20T21:25:36.284Z,0.90
2022-08-20T21:28:04.824Z,1.10
2022-08-20T21:30:33.721Z,0.60
2022-08-20T21:33:01.574Z,0.70
2022-08-20T21:35:29.642Z,0.90
2022-08-20T21:37:57.509Z,1.10
2022-08-20T21:40:28.190Z,0.80
2022-08-20T21:42:56.707Z,0.60
2022-08-20T21:45:28.498Z,0.60
2022-08-20T21:47:58.709Z,1.20
2022-08-20T21:50:27.219Z,1.00
2022-08-20T21:52:58.011Z,0.60
2022-08-20T21:55:39.297Z,0.80
2022-08-20T21:58:09.345Z,0.80
2022-08-20T22:01:05.499Z,1.00
2022-08-20T22:03:38.948Z,0.90
2022-08-20T22:06:13.025Z,0.70
2022-08-20T22:08:41.486Z,0.80
2022-08-20T22:11:12.217Z,0.90
2022-08-20T22:13:41.189Z,0.70
2022-08-20T22:16:12.477Z,0.90
2022-08-20T22:18:41.372Z,0.90
2022-08-20T22:21:17.292Z,0.80
2022-08-20T22:23:45.519Z,0.90
2022-08-20T22:26:17.424Z,1.00
2022-08-20T22:28:51.157Z,1.10
2022-08-20T22:31:26.739Z,0.80
2022-08-20T22:33:56.941Z,1.00
2022-08-20T22:36:25.909Z,1.30
2022-08-20T22:38:55.615Z,0.90
2022-08-20T22:41:23.777Z,0.90
2022-08-20T22:43:55.777Z,0.80
2022-08-20T22:46:28.562Z,0.90
2022-08-20T22:48:57.538Z,1.30
2022-08-20T22:51:38.864Z,0.80
2022-08-20T22:54:15.606Z,0.90
2022-08-20T22:56:43.418Z,1.30
2022-08-20T22:59:11.606Z,0.90
2022-08-20T23:01:39.649Z,0.80
2022-08-20T23:04:19.437Z,0.80
2022-08-20T23:06:47.980Z,1.10
2022-08-20T23:09:15.998Z,1.00
2022-08-20T23:11:50.008Z,1.00
2022-08-20T23:14:18.041Z,1.30
2022-08-20T23:16:52.611Z,1.50
2022-08-20T23:19:22.706Z,0.90
2022-08-20T23:21:52.063Z,0.90
2022-08-20T23:24:20.229Z,1.00
2022-08-20T23:26:53.080Z,0.70
2022-08-20T23:29:25.809Z,0.80
2022-08-20T23:31:56.890Z,1.00
2022-08-20T23:34:26.396Z,0.90
2022-08-20T23:36:57.602Z,0.90
2022-08-20T23:39:27.174Z,1.10
2022-08-20T23:41:55.837Z,1.10
2022-08-20T23:44:25.702Z,1.00
2022-08-20T23:47:02.615Z,0.80
2022-08-20T23:49:32.263Z,1.10
2022-08-20T23:52:00.812Z,1.10
2022-08-20T23:54:32.081Z,1.00
2022-08-20T23:57:00.297Z,1.00
2022-08-20T23:59:28.326Z,0.90
